Aérodrome :
LOGIN :

S'inscrire | Disclaimer

   EN    FR    IT 

 










Légende :    VFR   VFR Marginal   IFR   IFR Intensif   IFR Très Intensif
Visi : 
Plafond : 
>= 8 km
>= 3000ft
5 à 8 km
1000 à 3000 ft
1500m à 5 km
500 à 1000 ft
800 à 1500m
200 à 500 ft
< 800m
< 200 ft
Symboles :   Orages  Brouillard  Fortes neiges  Fortes précipitations  Vent > 20 kt
SIGMETs :   Divers  Orages  Givrage  Turbulence  Onde Orograph.  Cendres Volcan.







- Altitude de l'aérodrome : 160 ft
- Code IATA : LRT
- Voir les cartes d'approche


LFRH - Lorient Lann Bihoue

DERNIER METAR :
  • 301030Z AUTO 15009KT 9999 NSC 15/10 Q1019 NOSIG

METARs EXPIRÉS :
  • 301000Z AUTO 14010KT 9999 NSC 15/10 Q1019 NOSIG
  • 300930Z AUTO 14009KT 110V170 9999 NSC 15/10 Q1020 NOSIG
  • 300900Z AUTO 14008KT 9999 NSC 14/10 Q1020 NOSIG
  • 300830Z AUTO 12008KT 9999 NSC 13/10 Q1020 NOSIG
  • 300800Z AUTO 11008KT 9999 NSC 12/10 Q1020 NOSIG

TAF AMD TAF LFRH
Valide du 30 à 06h jusqu'au 31 à 06h UTC


300524Z 3006/3106 VRB02KT CAVOK
PROB30
TEMPO 3006/3007 4000 -RA BR
BECMG 3007/3008 12008KT
BECMG 3023/3101 23015KT
PROB30
TEMPO 3018/3024 2000 BCFG BKN007
TEMPO 3100/3103 23015G25KT 4000 SHRA BKN007TCU
BECMG 3103/3104 BKN015
Pas de NOTAMs connus pour ce terrain.



MET'MAP, la Météo Aéronautique d'un coup d'oeil ! - Copyright ORBIFLY Décembre 2007 - Disclaimer

ORBIFLY MET'MAP TEAM :

Programmation & Développement : Alexandra Zaïnal
Conception & Développement : Baudouin d'Aumeries
Co-Programmation & Développement : Marc-Olivier Méhu
Soutien technique & logistique : Manuel Goepfert

Contact : metmap@orbifly.com




SOURCES & CREDITS :

   NOAA